sensor_id;sensor_type;location;lat;lon;timestamp;temperature;humidity
22781;DHT22;11557;50.884;4.322;2023-02-12T00:01:39;10.20;99.90
22781;DHT22;11557;50.884;4.322;2023-02-12T00:04:05;10.30;99.90
22781;DHT22;11557;50.884;4.322;2023-02-12T00:06:30;10.20;99.90
22781;DHT22;11557;50.884;4.322;2023-02-12T00:08:57;10.30;99.90
22781;DHT22;11557;50.884;4.322;2023-02-12T00:11:24;10.20;99.90
22781;DHT22;11557;50.884;4.322;2023-02-12T00:13:51;10.20;99.90
22781;DHT22;11557;50.884;4.322;2023-02-12T00:16:26;10.20;99.90
22781;DHT22;11557;50.884;4.322;2023-02-12T00:18:54;10.20;99.90
22781;DHT22;11557;50.884;4.322;2023-02-12T00:21:21;10.30;99.90
22781;DHT22;11557;50.884;4.322;2023-02-12T00:23:47;10.20;99.90
22781;DHT22;11557;50.884;4.322;2023-02-12T00:26:14;10.20;99.90
22781;DHT22;11557;50.884;4.322;2023-02-12T00:28:40;10.20;99.90
22781;DHT22;11557;50.884;4.322;2023-02-12T00:31:08;10.20;99.90
22781;DHT22;11557;50.884;4.322;2023-02-12T00:33:34;10.20;99.90
22781;DHT22;11557;50.884;4.322;2023-02-12T00:36:00;10.20;99.90
22781;DHT22;11557;50.884;4.322;2023-02-12T00:38:26;10.20;99.90
22781;DHT22;11557;50.884;4.322;2023-02-12T00:40:52;10.20;99.90
22781;DHT22;11557;50.884;4.322;2023-02-12T00:43:18;10.20;99.90
22781;DHT22;11557;50.884;4.322;2023-02-12T00:45:44;10.20;99.90
22781;DHT22;11557;50.884;4.322;2023-02-12T00:48:10;10.20;99.90
22781;DHT22;11557;50.884;4.322;2023-02-12T00:50:36;10.10;99.90
22781;DHT22;11557;50.884;4.322;2023-02-12T00:53:02;10.10;99.90
22781;DHT22;11557;50.884;4.322;2023-02-12T00:55:27;10.10;99.90
22781;DHT22;11557;50.884;4.322;2023-02-12T00:57:53;10.10;99.90
22781;DHT22;11557;50.884;4.322;2023-02-12T01:00:19;10.10;99.90
22781;DHT22;11557;50.884;4.322;2023-02-12T01:02:44;10.20;99.90
22781;DHT22;11557;50.884;4.322;2023-02-12T01:05:10;10.10;99.90
22781;DHT22;11557;50.884;4.322;2023-02-12T01:07:36;10.10;99.90
22781;DHT22;11557;50.884;4.322;2023-02-12T01:10:04;10.00;99.90
22781;DHT22;11557;50.884;4.322;2023-02-12T01:12:30;9.80;99.90
22781;DHT22;11557;50.884;4.322;2023-02-12T01:14:56;9.80;99.90
22781;DHT22;11557;50.884;4.322;2023-02-12T01:17:21;9.80;99.90
22781;DHT22;11557;50.884;4.322;2023-02-12T01:19:47;9.90;99.90
22781;DHT22;11557;50.884;4.322;2023-02-12T01:22:13;9.90;99.90
22781;DHT22;11557;50.884;4.322;2023-02-12T01:24:39;10.00;99.90
22781;DHT22;11557;50.884;4.322;2023-02-12T01:27:05;10.00;99.90
22781;DHT22;11557;50.884;4.322;2023-02-12T01:29:30;10.00;99.90
22781;DHT22;11557;50.884;4.322;2023-02-12T01:31:56;10.00;99.90
22781;DHT22;11557;50.884;4.322;2023-02-12T01:34:22;10.00;99.90
22781;DHT22;11557;50.884;4.322;2023-02-12T01:36:48;9.90;99.90
22781;DHT22;11557;50.884;4.322;2023-02-12T01:39:15;10.00;99.90
22781;DHT22;11557;50.884;4.322;2023-02-12T01:41:43;10.00;99.90
22781;DHT22;11557;50.884;4.322;2023-02-12T01:44:21;10.00;99.90
22781;DHT22;11557;50.884;4.322;2023-02-12T01:46:49;10.00;99.90
22781;DHT22;11557;50.884;4.322;2023-02-12T01:49:43;10.10;99.90
22781;DHT22;11557;50.884;4.322;2023-02-12T01:52:13;10.00;99.90
22781;DHT22;11557;50.884;4.322;2023-02-12T01:54:41;10.00;99.90
22781;DHT22;11557;50.884;4.322;2023-02-12T01:57:08;10.10;99.90
22781;DHT22;11557;50.884;4.322;2023-02-12T01:59:37;10.00;99.90
22781;DHT22;11557;50.884;4.322;2023-02-12T02:02:04;10.00;99.90
22781;DHT22;11557;50.884;4.322;2023-02-12T02:04:35;10.00;99.90
22781;DHT22;11557;50.884;4.322;2023-02-12T02:07:03;10.00;99.90
22781;DHT22;11557;50.884;4.322;2023-02-12T02:09:32;10.00;99.90
22781;DHT22;11557;50.884;4.322;2023-02-12T02:11:59;10.00;99.90
22781;DHT22;11557;50.884;4.322;2023-02-12T02:14:44;10.00;99.90
22781;DHT22;11557;50.884;4.322;2023-02-12T02:21:00;10.00;99.90
22781;DHT22;11557;50.884;4.322;2023-02-12T02:32:05;9.90;99.90
22781;DHT22;11557;50.884;4.322;2023-02-12T02:34:46;9.80;99.90
22781;DHT22;11557;50.884;4.322;2023-02-12T02:37:30;9.80;99.90
22781;DHT22;11557;50.884;4.322;2023-02-12T02:40:10;9.80;99.90
22781;DHT22;11557;50.884;4.322;2023-02-12T02:42:59;9.90;99.90
22781;DHT22;11557;50.884;4.322;2023-02-12T02:45:42;9.80;99.90
22781;DHT22;11557;50.884;4.322;2023-02-12T02:48:21;9.90;99.90
22781;DHT22;11557;50.884;4.322;2023-02-12T02:50:53;9.80;99.90
22781;DHT22;11557;50.884;4.322;2023-02-12T02:53:40;9.80;99.90
22781;DHT22;11557;50.884;4.322;2023-02-12T02:56:10;9.80;99.90
22781;DHT22;11557;50.884;4.322;2023-02-12T02:59:08;9.80;99.90
22781;DHT22;11557;50.884;4.322;2023-02-12T03:01:59;9.90;99.90
22781;DHT22;11557;50.884;4.322;2023-02-12T03:04:31;9.90;99.90
22781;DHT22;11557;50.884;4.322;2023-02-12T03:07:18;9.90;99.90
22781;DHT22;11557;50.884;4.322;2023-02-12T03:12:28;9.90;99.90
22781;DHT22;11557;50.884;4.322;2023-02-12T03:15:02;9.90;99.90
22781;DHT22;11557;50.884;4.322;2023-02-12T03:17:34;9.90;99.90
22781;DHT22;11557;50.884;4.322;2023-02-12T03:20:11;9.90;99.90
22781;DHT22;11557;50.884;4.322;2023-02-12T03:22:41;9.80;99.90
22781;DHT22;11557;50.884;4.322;2023-02-12T03:25:12;9.90;99.90
22781;DHT22;11557;50.884;4.322;2023-02-12T03:27:53;9.90;99.90
22781;DHT22;11557;50.884;4.322;2023-02-12T03:30:23;9.80;99.90
22781;DHT22;11557;50.884;4.322;2023-02-12T03:35:33;9.80;99.90
22781;DHT22;11557;50.884;4.322;2023-02-12T03:38:04;9.90;99.90
22781;DHT22;11557;50.884;4.322;2023-02-12T03:40:39;9.80;99.90
22781;DHT22;11557;50.884;4.322;2023-02-12T03:43:22;9.80;99.90
22781;DHT22;11557;50.884;4.322;2023-02-12T03:45:57;9.80;99.90
22781;DHT22;11557;50.884;4.322;2023-02-12T03:48:40;9.70;99.90
22781;DHT22;11557;50.884;4.322;2023-02-12T03:53:52;9.80;99.90
22781;DHT22;11557;50.884;4.322;2023-02-12T03:56:24;9.80;99.90
22781;DHT22;11557;50.884;4.322;2023-02-12T03:58:51;9.70;99.90
22781;DHT22;11557;50.884;4.322;2023-02-12T04:01:17;9.60;99.90
22781;DHT22;11557;50.884;4.322;2023-02-12T04:03:43;9.60;99.90
22781;DHT22;11557;50.884;4.322;2023-02-12T04:06:23;9.70;99.90
22781;DHT22;11557;50.884;4.322;2023-02-12T04:08:50;9.60;99.90
22781;DHT22;11557;50.884;4.322;2023-02-12T04:16:54;9.80;99.90
22781;DHT22;11557;50.884;4.322;2023-02-12T04:30:28;9.70;99.90
22781;DHT22;11557;50.884;4.322;2023-02-12T04:32:59;9.70;99.90
22781;DHT22;11557;50.884;4.322;2023-02-12T04:40:58;9.70;99.90
22781;DHT22;11557;50.884;4.322;2023-02-12T04:43:28;9.70;99.90
22781;DHT22;11557;50.884;4.322;2023-02-12T04:45:54;9.70;99.90
22781;DHT22;11557;50.884;4.322;2023-02-12T04:48:20;9.70;99.90
22781;DHT22;11557;50.884;4.322;2023-02-12T04:50:46;9.60;99.90
22781;DHT22;11557;50.884;4.322;2023-02-12T04:53:12;9.60;99.90
22781;DHT22;11557;50.884;4.322;2023-02-12T04:55:37;9.60;99.90
22781;DHT22;11557;50.884;4.322;2023-02-12T04:58:04;9.60;99.90
22781;DHT22;11557;50.884;4.322;2023-02-12T05:00:30;9.60;99.90
22781;DHT22;11557;50.884;4.322;2023-02-12T05:02:55;9.70;99.90
22781;DHT22;11557;50.884;4.322;2023-02-12T05:05:21;9.70;99.90
22781;DHT22;11557;50.884;4.322;2023-02-12T05:07:47;9.70;99.90
22781;DHT22;11557;50.884;4.322;2023-02-12T05:10:13;9.70;99.90
22781;DHT22;11557;50.884;4.322;2023-02-12T05:12:39;9.70;99.90
22781;DHT22;11557;50.884;4.322;2023-02-12T05:15:05;9.70;99.90
22781;DHT22;11557;50.884;4.322;2023-02-12T05:17:31;9.70;99.90
22781;DHT22;11557;50.884;4.322;2023-02-12T05:19:57;9.70;99.90
22781;DHT22;11557;50.884;4.322;2023-02-12T05:22:23;9.70;99.90
22781;DHT22;11557;50.884;4.322;2023-02-12T05:24:48;9.70;99.90
22781;DHT22;11557;50.884;4.322;2023-02-12T05:27:14;9.70;99.90
22781;DHT22;11557;50.884;4.322;2023-02-12T05:29:40;9.70;99.90
22781;DHT22;11557;50.884;4.322;2023-02-12T05:32:05;9.70;99.90
22781;DHT22;11557;50.884;4.322;2023-02-12T05:34:32;9.60;99.90
22781;DHT22;11557;50.884;4.322;2023-02-12T05:36:58;9.70;99.90
22781;DHT22;11557;50.884;4.322;2023-02-12T05:39:24;9.70;99.90
22781;DHT22;11557;50.884;4.322;2023-02-12T05:41:49;9.60;99.90
22781;DHT22;11557;50.884;4.322;2023-02-12T05:44:15;9.60;99.90
22781;DHT22;11557;50.884;4.322;2023-02-12T05:46:42;9.60;99.90
22781;DHT22;11557;50.884;4.322;2023-02-12T05:49:08;9.60;99.90
22781;DHT22;11557;50.884;4.322;2023-02-12T05:51:34;9.50;99.90
22781;DHT22;11557;50.884;4.322;2023-02-12T05:54:03;9.60;99.90
22781;DHT22;11557;50.884;4.322;2023-02-12T05:56:33;9.60;99.90
22781;DHT22;11557;50.884;4.322;2023-02-12T05:59:06;9.60;99.90
22781;DHT22;11557;50.884;4.322;2023-02-12T06:01:33;9.60;99.90
22781;DHT22;11557;50.884;4.322;2023-02-12T06:04:00;9.60;99.90
22781;DHT22;11557;50.884;4.322;2023-02-12T06:06:27;9.60;99.90
22781;DHT22;11557;50.884;4.322;2023-02-12T06:08:53;9.50;99.90
22781;DHT22;11557;50.884;4.322;2023-02-12T06:11:19;9.50;99.90
22781;DHT22;11557;50.884;4.322;2023-02-12T06:13:46;9.60;99.90
22781;DHT22;11557;50.884;4.322;2023-02-12T06:16:27;9.40;99.90
22781;DHT22;11557;50.884;4.322;2023-02-12T06:18:54;9.40;99.90
22781;DHT22;11557;50.884;4.322;2023-02-12T06:21:21;9.50;99.90
22781;DHT22;11557;50.884;4.322;2023-02-12T06:23:48;9.60;99.90
22781;DHT22;11557;50.884;4.322;2023-02-12T06:26:14;9.60;99.90
22781;DHT22;11557;50.884;4.322;2023-02-12T06:28:40;9.60;99.90
22781;DHT22;11557;50.884;4.322;2023-02-12T06:31:17;9.70;99.90
22781;DHT22;11557;50.884;4.322;2023-02-12T06:33:43;9.70;99.90
22781;DHT22;11557;50.884;4.322;2023-02-12T06:36:09;9.70;99.90
22781;DHT22;11557;50.884;4.322;2023-02-12T06:38:34;9.50;99.90
22781;DHT22;11557;50.884;4.322;2023-02-12T06:41:01;9.50;99.90
22781;DHT22;11557;50.884;4.322;2023-02-12T06:43:27;9.50;99.90
22781;DHT22;11557;50.884;4.322;2023-02-12T06:45:52;9.60;99.90
22781;DHT22;11557;50.884;4.322;2023-02-12T06:48:18;9.60;99.90
22781;DHT22;11557;50.884;4.322;2023-02-12T06:50:44;9.60;99.90
22781;DHT22;11557;50.884;4.322;2023-02-12T06:53:10;9.60;99.90
22781;DHT22;11557;50.884;4.322;2023-02-12T06:55:35;9.60;99.90
22781;DHT22;11557;50.884;4.322;2023-02-12T06:58:01;9.60;99.90
22781;DHT22;11557;50.884;4.322;2023-02-12T07:00:26;9.60;99.90
22781;DHT22;11557;50.884;4.322;2023-02-12T07:02:54;9.60;99.90
22781;DHT22;11557;50.884;4.322;2023-02-12T07:05:21;9.60;99.90
22781;DHT22;11557;50.884;4.322;2023-02-12T07:07:47;9.60;99.90
22781;DHT22;11557;50.884;4.322;2023-02-12T07:10:12;9.70;99.90
22781;DHT22;11557;50.884;4.322;2023-02-12T07:12:38;9.60;99.90
22781;DHT22;11557;50.884;4.322;2023-02-12T07:15:04;9.60;99.90
22781;DHT22;11557;50.884;4.322;2023-02-12T07:17:30;9.60;99.90
22781;DHT22;11557;50.884;4.322;2023-02-12T07:19:56;9.60;99.90
22781;DHT22;11557;50.884;4.322;2023-02-12T07:22:21;9.60;99.90
22781;DHT22;11557;50.884;4.322;2023-02-12T07:24:47;9.50;99.90
22781;DHT22;11557;50.884;4.322;2023-02-12T07:27:13;9.50;99.90
22781;DHT22;11557;50.884;4.322;2023-02-12T07:29:39;9.50;99.90
22781;DHT22;11557;50.884;4.322;2023-02-12T07:32:05;9.50;99.90
22781;DHT22;11557;50.884;4.322;2023-02-12T07:34:31;9.50;99.90
22781;DHT22;11557;50.884;4.322;2023-02-12T07:36:57;9.50;99.90
22781;DHT22;11557;50.884;4.322;2023-02-12T07:39:23;9.60;99.90
22781;DHT22;11557;50.884;4.322;2023-02-12T07:41:49;9.60;99.90
22781;DHT22;11557;50.884;4.322;2023-02-12T07:44:14;9.60;99.90
22781;DHT22;11557;50.884;4.322;2023-02-12T07:46:45;9.70;99.90
22781;DHT22;11557;50.884;4.322;2023-02-12T07:49:13;9.70;99.90
22781;DHT22;11557;50.884;4.322;2023-02-12T07:51:39;9.70;99.90
22781;DHT22;11557;50.884;4.322;2023-02-12T07:54:06;9.70;99.90
22781;DHT22;11557;50.884;4.322;2023-02-12T07:56:34;9.70;99.90
22781;DHT22;11557;50.884;4.322;2023-02-12T07:59:05;9.60;99.90
22781;DHT22;11557;50.884;4.322;2023-02-12T08:01:32;9.70;99.90
22781;DHT22;11557;50.884;4.322;2023-02-12T08:04:00;9.70;99.90
22781;DHT22;11557;50.884;4.322;2023-02-12T08:06:29;9.70;99.90
22781;DHT22;11557;50.884;4.322;2023-02-12T08:08:57;9.70;99.90
22781;DHT22;11557;50.884;4.322;2023-02-12T08:11:24;9.10;99.90
22781;DHT22;11557;50.884;4.322;2023-02-12T08:13:51;9.80;99.90
22781;DHT22;11557;50.884;4.322;2023-02-12T08:16:20;9.80;99.90
22781;DHT22;11557;50.884;4.322;2023-02-12T08:18:46;9.80;99.90
22781;DHT22;11557;50.884;4.322;2023-02-12T08:21:15;9.90;99.90
22781;DHT22;11557;50.884;4.322;2023-02-12T08:23:42;9.90;99.90
22781;DHT22;11557;50.884;4.322;2023-02-12T08:26:13;9.80;99.90
22781;DHT22;11557;50.884;4.322;2023-02-12T08:28:44;9.80;99.90
22781;DHT22;11557;50.884;4.322;2023-02-12T08:31:13;9.90;99.90
22781;DHT22;11557;50.884;4.322;2023-02-12T08:33:40;10.00;99.90
22781;DHT22;11557;50.884;4.322;2023-02-12T08:36:08;10.00;99.90
22781;DHT22;11557;50.884;4.322;2023-02-12T08:38:37;10.10;99.90
22781;DHT22;11557;50.884;4.322;2023-02-12T08:41:06;10.10;99.90
22781;DHT22;11557;50.884;4.322;2023-02-12T08:43:32;10.10;99.90
22781;DHT22;11557;50.884;4.322;2023-02-12T08:46:03;10.20;99.90
22781;DHT22;11557;50.884;4.322;2023-02-12T08:48:29;10.10;99.90
22781;DHT22;11557;50.884;4.322;2023-02-12T08:50:55;10.10;99.90
22781;DHT22;11557;50.884;4.322;2023-02-12T08:53:21;9.90;99.90
22781;DHT22;11557;50.884;4.322;2023-02-12T08:55:48;10.00;99.90
22781;DHT22;11557;50.884;4.322;2023-02-12T08:58:14;10.00;99.90
22781;DHT22;11557;50.884;4.322;2023-02-12T09:00:39;10.20;99.90
22781;DHT22;11557;50.884;4.322;2023-02-12T09:03:05;10.20;99.90
22781;DHT22;11557;50.884;4.322;2023-02-12T09:05:31;10.30;99.90
22781;DHT22;11557;50.884;4.322;2023-02-12T09:07:56;10.30;99.90
22781;DHT22;11557;50.884;4.322;2023-02-12T09:10:22;10.40;99.90
22781;DHT22;11557;50.884;4.322;2023-02-12T09:12:48;10.30;99.90
22781;DHT22;11557;50.884;4.322;2023-02-12T09:15:14;10.10;99.90
22781;DHT22;11557;50.884;4.322;2023-02-12T09:17:39;10.10;99.90
22781;DHT22;11557;50.884;4.322;2023-02-12T09:20:07;9.90;99.90
22781;DHT22;11557;50.884;4.322;2023-02-12T09:22:33;9.90;99.90
22781;DHT22;11557;50.884;4.322;2023-02-12T09:25:04;9.90;99.90
22781;DHT22;11557;50.884;4.322;2023-02-12T09:27:30;10.00;99.90
22781;DHT22;11557;50.884;4.322;2023-02-12T09:29:56;10.10;99.90
22781;DHT22;11557;50.884;4.322;2023-02-12T09:32:22;10.10;99.90
22781;DHT22;11557;50.884;4.322;2023-02-12T09:34:47;9.90;99.90
22781;DHT22;11557;50.884;4.322;2023-02-12T09:37:13;10.00;99.90
22781;DHT22;11557;50.884;4.322;2023-02-12T09:39:40;10.10;99.90
22781;DHT22;11557;50.884;4.322;2023-02-12T09:42:20;10.10;99.90
22781;DHT22;11557;50.884;4.322;2023-02-12T09:50:53;10.40;99.90
22781;DHT22;11557;50.884;4.322;2023-02-12T09:53:23;10.60;99.90
22781;DHT22;11557;50.884;4.322;2023-02-12T09:55:50;10.60;99.90
22781;DHT22;11557;50.884;4.322;2023-02-12T10:00:55;10.70;99.90
22781;DHT22;11557;50.884;4.322;2023-02-12T10:03:21;10.80;99.90
22781;DHT22;11557;50.884;4.322;2023-02-12T10:17:29;10.60;99.90
22781;DHT22;11557;50.884;4.322;2023-02-12T10:20:08;10.50;99.90
22781;DHT22;11557;50.884;4.322;2023-02-12T10:25:50;10.80;99.90
22781;DHT22;11557;50.884;4.322;2023-02-12T10:31:01;11.10;99.90
22781;DHT22;11557;50.884;4.322;2023-02-12T10:33:33;11.10;99.90
22781;DHT22;11557;50.884;4.322;2023-02-12T10:38:44;11.10;99.90
22781;DHT22;11557;50.884;4.322;2023-02-12T10:41:13;11.00;99.90
22781;DHT22;11557;50.884;4.322;2023-02-12T10:43:40;11.00;99.90
22781;DHT22;11557;50.884;4.322;2023-02-12T10:46:13;11.00;99.90
22781;DHT22;11557;50.884;4.322;2023-02-12T10:48:45;10.90;99.90
22781;DHT22;11557;50.884;4.322;2023-02-12T10:54:41;11.00;99.90
22781;DHT22;11557;50.884;4.322;2023-02-12T10:57:25;11.10;99.90
22781;DHT22;11557;50.884;4.322;2023-02-12T10:59:54;11.00;99.90
22781;DHT22;11557;50.884;4.322;2023-02-12T11:02:33;11.10;99.90
22781;DHT22;11557;50.884;4.322;2023-02-12T11:05:00;11.10;99.90
22781;DHT22;11557;50.884;4.322;2023-02-12T11:07:49;11.10;99.90
22781;DHT22;11557;50.884;4.322;2023-02-12T11:10:30;11.10;99.90
22781;DHT22;11557;50.884;4.322;2023-02-12T11:12:58;11.10;99.90
22781;DHT22;11557;50.884;4.322;2023-02-12T11:15:26;11.10;99.90
22781;DHT22;11557;50.884;4.322;2023-02-12T11:17:59;11.10;99.90
22781;DHT22;11557;50.884;4.322;2023-02-12T11:20:28;11.20;99.90
22781;DHT22;11557;50.884;4.322;2023-02-12T11:22:59;11.30;99.90
22781;DHT22;11557;50.884;4.322;2023-02-12T11:25:28;11.30;99.90
22781;DHT22;11557;50.884;4.322;2023-02-12T11:28:04;11.30;99.90
22781;DHT22;11557;50.884;4.322;2023-02-12T11:30:30;11.50;99.90
22781;DHT22;11557;50.884;4.322;2023-02-12T11:33:21;11.50;99.90
22781;DHT22;11557;50.884;4.322;2023-02-12T11:36:02;11.50;99.90
22781;DHT22;11557;50.884;4.322;2023-02-12T11:38:32;11.40;99.90
22781;DHT22;11557;50.884;4.322;2023-02-12T11:41:02;11.30;99.90
22781;DHT22;11557;50.884;4.322;2023-02-12T11:43:30;11.40;99.90
22781;DHT22;11557;50.884;4.322;2023-02-12T11:45:58;11.40;99.90
22781;DHT22;11557;50.884;4.322;2023-02-12T11:48:43;11.20;99.90
22781;DHT22;11557;50.884;4.322;2023-02-12T11:51:25;11.10;99.90
22781;DHT22;11557;50.884;4.322;2023-02-12T11:53:52;11.30;99.90
22781;DHT22;11557;50.884;4.322;2023-02-12T11:56:20;11.40;99.90
22781;DHT22;11557;50.884;4.322;2023-02-12T11:58:47;11.50;99.90
22781;DHT22;11557;50.884;4.322;2023-02-12T12:01:32;11.60;99.90
22781;DHT22;11557;50.884;4.322;2023-02-12T12:04:14;11.60;99.90
22781;DHT22;11557;50.884;4.322;2023-02-12T12:06:58;11.50;99.90
22781;DHT22;11557;50.884;4.322;2023-02-12T12:09:43;11.60;99.90
22781;DHT22;11557;50.884;4.322;2023-02-12T12:12:31;11.70;99.90
22781;DHT22;11557;50.884;4.322;2023-02-12T12:15:18;11.90;99.90
22781;DHT22;11557;50.884;4.322;2023-02-12T12:18:20;11.80;99.90
22781;DHT22;11557;50.884;4.322;2023-02-12T12:21:22;11.80;99.90
22781;DHT22;11557;50.884;4.322;2023-02-12T12:23:59;11.70;99.90
22781;DHT22;11557;50.884;4.322;2023-02-12T12:26:32;11.70;99.90
22781;DHT22;11557;50.884;4.322;2023-02-12T12:29:23;11.70;99.90
22781;DHT22;11557;50.884;4.322;2023-02-12T12:31:58;11.70;99.90
22781;DHT22;11557;50.884;4.322;2023-02-12T12:34:26;11.70;99.90
22781;DHT22;11557;50.884;4.322;2023-02-12T12:50:48;11.50;99.90
22781;DHT22;11557;50.884;4.322;2023-02-12T12:53:26;11.40;99.90
22781;DHT22;11557;50.884;4.322;2023-02-12T12:58:57;11.70;99.90
22781;DHT22;11557;50.884;4.322;2023-02-12T13:10:16;11.80;99.90
22781;DHT22;11557;50.884;4.322;2023-02-12T13:12:47;11.80;99.90
22781;DHT22;11557;50.884;4.322;2023-02-12T13:26:21;11.90;99.90
22781;DHT22;11557;50.884;4.322;2023-02-12T13:28:55;11.80;99.90
22781;DHT22;11557;50.884;4.322;2023-02-12T13:31:24;11.80;99.90
22781;DHT22;11557;50.884;4.322;2023-02-12T13:33:59;11.80;99.90
22781;DHT22;11557;50.884;4.322;2023-02-12T13:36:25;11.80;99.90
22781;DHT22;11557;50.884;4.322;2023-02-12T13:38:59;11.70;99.90
22781;DHT22;11557;50.884;4.322;2023-02-12T13:41:25;11.60;99.90
22781;DHT22;11557;50.884;4.322;2023-02-12T13:44:25;11.70;99.90
22781;DHT22;11557;50.884;4.322;2023-02-12T13:46:54;11.80;99.90
22781;DHT22;11557;50.884;4.322;2023-02-12T13:52:18;11.60;99.90
22781;DHT22;11557;50.884;4.322;2023-02-12T13:55:01;11.60;99.90
22781;DHT22;11557;50.884;4.322;2023-02-12T13:57:29;11.60;99.90
22781;DHT22;11557;50.884;4.322;2023-02-12T13:59:55;11.60;99.90
22781;DHT22;11557;50.884;4.322;2023-02-12T14:07:48;11.40;99.90
22781;DHT22;11557;50.884;4.322;2023-02-12T14:10:41;11.50;99.90
22781;DHT22;11557;50.884;4.322;2023-02-12T14:15:38;11.50;99.90
22781;DHT22;11557;50.884;4.322;2023-02-12T14:18:34;11.60;99.90
22781;DHT22;11557;50.884;4.322;2023-02-12T14:23:41;11.50;99.90
22781;DHT22;11557;50.884;4.322;2023-02-12T14:26:13;11.50;99.90
22781;DHT22;11557;50.884;4.322;2023-02-12T14:28:52;11.60;99.90
22781;DHT22;11557;50.884;4.322;2023-02-12T14:36:38;11.70;99.90
22781;DHT22;11557;50.884;4.322;2023-02-12T14:41:50;11.60;99.90
22781;DHT22;11557;50.884;4.322;2023-02-12T14:46:51;11.60;99.90
22781;DHT22;11557;50.884;4.322;2023-02-12T14:49:27;11.70;99.90
22781;DHT22;11557;50.884;4.322;2023-02-12T14:52:00;11.70;99.90
22781;DHT22;11557;50.884;4.322;2023-02-12T14:54:43;11.70;99.90
22781;DHT22;11557;50.884;4.322;2023-02-12T14:59:48;11.70;99.90
22781;DHT22;11557;50.884;4.322;2023-02-12T15:02:26;11.60;99.90
22781;DHT22;11557;50.884;4.322;2023-02-12T15:04:56;11.50;99.90
22781;DHT22;11557;50.884;4.322;2023-02-12T15:07:36;11.50;99.90
22781;DHT22;11557;50.884;4.322;2023-02-12T15:10:22;11.50;99.90
22781;DHT22;11557;50.884;4.322;2023-02-12T15:15:56;11.60;99.90
22781;DHT22;11557;50.884;4.322;2023-02-12T15:21:23;11.50;99.90
22781;DHT22;11557;50.884;4.322;2023-02-12T15:24:07;11.30;99.90
22781;DHT22;11557;50.884;4.322;2023-02-12T15:26:39;11.40;99.90
22781;DHT22;11557;50.884;4.322;2023-02-12T15:29:12;11.40;99.90
22781;DHT22;11557;50.884;4.322;2023-02-12T15:31:40;11.20;99.90
22781;DHT22;11557;50.884;4.322;2023-02-12T15:34:06;11.30;99.90
22781;DHT22;11557;50.884;4.322;2023-02-12T15:36:32;11.20;99.90
22781;DHT22;11557;50.884;4.322;2023-02-12T15:39:03;11.20;99.90
22781;DHT22;11557;50.884;4.322;2023-02-12T15:44:17;11.20;99.90
22781;DHT22;11557;50.884;4.322;2023-02-12T15:47:13;11.30;99.90
22781;DHT22;11557;50.884;4.322;2023-02-12T15:49:41;11.30;99.90
22781;DHT22;11557;50.884;4.322;2023-02-12T15:52:13;11.30;99.90
22781;DHT22;11557;50.884;4.322;2023-02-12T15:54:40;11.20;99.90
22781;DHT22;11557;50.884;4.322;2023-02-12T15:57:11;11.10;99.90
22781;DHT22;11557;50.884;4.322;2023-02-12T15:59:38;11.10;99.90
22781;DHT22;11557;50.884;4.322;2023-02-12T16:02:21;11.10;99.90
22781;DHT22;11557;50.884;4.322;2023-02-12T16:04:49;11.10;99.90
22781;DHT22;11557;50.884;4.322;2023-02-12T16:07:17;11.00;99.90
22781;DHT22;11557;50.884;4.322;2023-02-12T16:09:44;11.10;99.90
22781;DHT22;11557;50.884;4.322;2023-02-12T16:12:15;11.00;99.90
22781;DHT22;11557;50.884;4.322;2023-02-12T16:14:50;11.00;99.90
22781;DHT22;11557;50.884;4.322;2023-02-12T16:22:31;10.80;99.90
22781;DHT22;11557;50.884;4.322;2023-02-12T16:24:58;10.70;99.90
22781;DHT22;11557;50.884;4.322;2023-02-12T16:27:32;10.70;99.90
22781;DHT22;11557;50.884;4.322;2023-02-12T16:30:01;10.70;99.90
22781;DHT22;11557;50.884;4.322;2023-02-12T16:50:42;10.70;99.90
22781;DHT22;11557;50.884;4.322;2023-02-12T16:55:56;10.70;99.90
22781;DHT22;11557;50.884;4.322;2023-02-12T16:58:22;10.70;99.90
22781;DHT22;11557;50.884;4.322;2023-02-12T17:00:51;10.70;99.90
22781;DHT22;11557;50.884;4.322;2023-02-12T17:03:17;10.70;99.90
22781;DHT22;11557;50.884;4.322;2023-02-12T17:05:43;10.70;99.90
22781;DHT22;11557;50.884;4.322;2023-02-12T17:08:13;10.60;99.90
22781;DHT22;11557;50.884;4.322;2023-02-12T17:10:39;10.70;99.90
22781;DHT22;11557;50.884;4.322;2023-02-12T17:13:05;10.70;99.90
22781;DHT22;11557;50.884;4.322;2023-02-12T17:15:37;10.60;99.90
22781;DHT22;11557;50.884;4.322;2023-02-12T17:18:07;10.50;99.90
22781;DHT22;11557;50.884;4.322;2023-02-12T17:20:33;10.50;99.90
22781;DHT22;11557;50.884;4.322;2023-02-12T17:22:58;10.50;99.90
22781;DHT22;11557;50.884;4.322;2023-02-12T17:25:25;10.50;99.90
22781;DHT22;11557;50.884;4.322;2023-02-12T17:27:51;10.50;99.90
22781;DHT22;11557;50.884;4.322;2023-02-12T17:30:18;10.60;99.90
22781;DHT22;11557;50.884;4.322;2023-02-12T17:32:46;10.60;99.90
22781;DHT22;11557;50.884;4.322;2023-02-12T17:35:12;10.60;99.90
22781;DHT22;11557;50.884;4.322;2023-02-12T17:37:38;10.50;99.90
22781;DHT22;11557;50.884;4.322;2023-02-12T17:40:05;10.40;99.90
22781;DHT22;11557;50.884;4.322;2023-02-12T17:42:31;10.30;99.90
22781;DHT22;11557;50.884;4.322;2023-02-12T17:44:57;10.50;99.90
22781;DHT22;11557;50.884;4.322;2023-02-12T17:47:23;10.50;99.90
22781;DHT22;11557;50.884;4.322;2023-02-12T17:49:49;10.50;99.90
22781;DHT22;11557;50.884;4.322;2023-02-12T17:52:15;10.50;99.90
22781;DHT22;11557;50.884;4.322;2023-02-12T17:54:44;10.40;99.90
22781;DHT22;11557;50.884;4.322;2023-02-12T17:57:10;10.30;99.90
22781;DHT22;11557;50.884;4.322;2023-02-12T17:59:37;10.40;99.90
22781;DHT22;11557;50.884;4.322;2023-02-12T18:02:03;10.50;99.90
22781;DHT22;11557;50.884;4.322;2023-02-12T18:04:33;10.50;99.90
22781;DHT22;11557;50.884;4.322;2023-02-12T18:07:02;10.50;99.90
22781;DHT22;11557;50.884;4.322;2023-02-12T18:09:27;10.40;99.90
22781;DHT22;11557;50.884;4.322;2023-02-12T18:11:53;10.40;99.90
22781;DHT22;11557;50.884;4.322;2023-02-12T18:14:19;10.50;99.90
22781;DHT22;11557;50.884;4.322;2023-02-12T18:16:45;10.60;99.90
22781;DHT22;11557;50.884;4.322;2023-02-12T18:19:11;10.60;99.90
22781;DHT22;11557;50.884;4.322;2023-02-12T18:21:37;10.60;99.90
22781;DHT22;11557;50.884;4.322;2023-02-12T18:24:03;10.60;99.90
22781;DHT22;11557;50.884;4.322;2023-02-12T18:26:30;10.50;99.90
22781;DHT22;11557;50.884;4.322;2023-02-12T18:28:57;10.50;99.90
22781;DHT22;11557;50.884;4.322;2023-02-12T18:31:23;10.60;99.90
22781;DHT22;11557;50.884;4.322;2023-02-12T18:33:49;10.50;99.90
22781;DHT22;11557;50.884;4.322;2023-02-12T18:36:17;10.50;99.90
22781;DHT22;11557;50.884;4.322;2023-02-12T18:38:44;10.60;99.90
22781;DHT22;11557;50.884;4.322;2023-02-12T18:41:16;10.50;99.90
22781;DHT22;11557;50.884;4.322;2023-02-12T18:43:43;10.50;99.90
22781;DHT22;11557;50.884;4.322;2023-02-12T18:46:15;10.50;99.90
22781;DHT22;11557;50.884;4.322;2023-02-12T18:48:41;10.60;99.90